| time (UTC) | temp F | wind direction | speed MPH | gust MPH | rain 1hr in | rain 24hr in | rain mn in | humidity % | barometer mb |
| 20260510062503 | 49 | 196 | 1.0 | 1.0 | 0.00 | 0.18 | 0.00 | 93 | 1005.8 |
| 20260510062004 | 49 | 71 | 1.0 | 2.0 | 0.00 | 0.18 | 0.00 | 93 | 1005.8 |
| 20260510061552 | 49 | 178 | 0.0 | 2.0 | 0.00 | 0.18 | 0.00 | 93 | 1007.1 |
| 20260510061503 | 49 | 190 | 1.0 | 2.0 | 0.00 | 0.18 | 0.00 | 93 | 1006.0 |
| 20260510061004 | 49 | 214 | 1.0 | 2.0 | 0.00 | 0.18 | 0.00 | 93 | 1005.9 |
| 20260510060504 | 49 | 201 | 0.0 | 1.0 | 0.00 | 0.18 | 0.00 | 93 | 1005.8 |
| 20260510060049 | 49 | 0 | 0.0 | 2.0 | 0.00 | 0.18 | 0.00 | 92 | 1006.9 |
| 20260510060005 | 49 | 325 | 0.0 | 1.0 | 0.00 | 0.18 | 0.00 | 93 | 1005.7 |
| 20260510055504 | 49 | 161 | 1.0 | 2.0 | 0.00 | 0.18 | 0.00 | 93 | 1005.6 |
| 20260510055004 | 49 | 209 | 1.0 | 2.0 | 0.00 | 0.18 | 0.00 | 93 | 1005.6 |
| 20260510054549 | 49 | 135 | 0.0 | 2.0 | 0.00 | 0.18 | 0.00 | 92 | 1006.7 |
| 20260510054503 | 49 | 219 | 0.0 | 2.0 | 0.00 | 0.18 | 0.00 | 93 | 1005.5 |
| 20260510054004 | 49 | 287 | 1.0 | 1.0 | 0.00 | 0.18 | 0.00 | 93 | 1005.4 |
| 20260510053504 | 49 | 355 | 1.0 | 2.0 | 0.00 | 0.18 | 0.00 | 92 | 1005.4 |
| 20260510053043 | 49 | 0 | 0.0 | 1.0 | 0.00 | 0.18 | 0.00 | 92 | 1006.7 |
| 20260510053003 | 50 | 315 | 0.0 | 1.0 | 0.00 | 0.18 | 0.00 | 92 | 1005.5 |
| 20260510052503 | 50 | 277 | 0.0 | 1.0 | 0.00 | 0.18 | 0.00 | 92 | 1005.5 |
| 20260510051551 | 50 | 178 | 0.0 | 2.0 | 0.00 | 0.18 | 0.00 | 92 | 1006.4 |
| 20260510051003 | 50 | 95 | 1.0 | 2.0 | 0.00 | 0.18 | 0.00 | 92 | 1005.1 |
| 20260510050503 | 50 | 74 | 1.0 | 2.0 | 0.00 | 0.18 | 0.00 | 92 | 1005.3 |
| 20260510050052 | 50 | 157 | 0.0 | 1.0 | 0.00 | 0.18 | 0.00 | 91 | 1006.3 |
| 20260510045003 | 51 | 53 | 0.0 | 1.0 | 0.00 | 0.18 | 0.00 | 92 | 1005.3 |
| 20260510044551 | 50 | 0 | 0.0 | 2.0 | 0.00 | 0.18 | 0.00 | 91 | 1006.4 |
| 20260510044504 | 51 | 192 | 0.0 | 2.0 | 0.00 | 0.18 | 0.00 | 91 | 1005.3 |
| 20260510044004 | 51 | 207 | 1.0 | 1.0 | 0.00 | 0.18 | 0.00 | 91 | 1005.1 |
| 20260510043503 | 51 | 166 | 1.0 | 3.0 | 0.00 | 0.18 | 0.00 | 91 | 1005.1 |
| 20260510043053 | 50 | 0 | 0.0 | 3.0 | 0.00 | 0.18 | 0.00 | 91 | 1006.0 |
| 20260510043003 | 51 | 149 | 1.0 | 2.0 | 0.00 | 0.18 | 0.00 | 91 | 1004.9 |
| 20260510042504 | 51 | 161 | 1.0 | 3.0 | 0.00 | 0.18 | 0.00 | 91 | 1005.0 |
| 20260510041547 | 51 | 0 | 0.0 | 3.0 | 0.00 | 0.18 | 0.00 | 90 | 1006.0 |
| 20260510041506 | 51 | 130 | 1.0 | 2.0 | 0.00 | 0.18 | 0.00 | 91 | 1005.0 |
| 20260510041003 | 51 | 125 | 1.0 | 3.0 | 0.00 | 0.18 | 0.00 | 91 | 1005.0 |
| 20260510040504 | 51 | 125 | 1.0 | 2.0 | 0.00 | 0.18 | 0.00 | 91 | 1005.0 |
| 20260510040047 | 51 | 0 | 0.0 | 2.0 | 0.00 | 0.18 | 0.00 | 90 | 1006.0 |
| 20260510040004 | 51 | 184 | 1.0 | 2.0 | 0.00 | 0.18 | 0.00 | 90 | 1005.0 |
| 20260510035504 | 51 | 152 | 1.0 | 2.0 | 0.00 | 0.18 | 0.18 | 90 | 1004.8 |
| 20260510035004 | 52 | 213 | 1.0 | 2.0 | 0.00 | 0.18 | 0.18 | 90 | 1004.8 |
| 20260510034544 | 51 | 206 | 0.0 | 2.0 | 0.00 | 0.18 | 0.18 | 89 | 1005.9 |
| 20260510034503 | 52 | 189 | 0.0 | 2.0 | 0.00 | 0.18 | 0.18 | 90 | 1004.6 |
| 20260510034004 | 52 | 208 | 1.0 | 2.0 | 0.00 | 0.18 | 0.18 | 89 | 1004.5 |
| 20260510033503 | 52 | 193 | 2.0 | 2.0 | 0.00 | 0.18 | 0.18 | 89 | 1004.3 |
| 20260510033111 | 52 | 197 | 0.0 | 3.0 | 0.00 | 0.18 | 0.18 | 88 | 1005.4 |
| 20260510033003 | 52 | 194 | 1.0 | 2.0 | 0.00 | 0.18 | 0.18 | 89 | 1004.2 |
| 20260510032004 | 53 | 204 | 1.0 | 3.0 | 0.00 | 0.18 | 0.18 | 89 | 1004.0 |
| 20260510031551 | 52 | 161 | 2.0 | 5.0 | 0.00 | 0.18 | 0.18 | 88 | 1005.4 |
| 20260510031504 | 53 | 204 | 2.0 | 3.0 | 0.00 | 0.18 | 0.18 | 89 | 1004.1 |
| 20260510031004 | 53 | 210 | 3.0 | 5.0 | 0.00 | 0.18 | 0.18 | 89 | 1004.1 |
| 20260510030050 | 53 | 152 | 1.0 | 5.0 | 0.00 | 0.18 | 0.18 | 88 | 1005.4 |
| 20260510030004 | 53 | 230 | 2.0 | 3.0 | 0.00 | 0.18 | 0.18 | 89 | 1004.1 |
| 20260510025503 | 53 | 257 | 1.0 | 3.0 | 0.00 | 0.18 | 0.18 | 88 | 1004.0 |
| 20260510025004 | 53 | 209 | 2.0 | 5.0 | 0.00 | 0.18 | 0.18 | 88 | 1004.0 |
| 20260510024554 | 53 | 218 | 1.0 | 4.0 | 0.00 | 0.18 | 0.18 | 87 | 1005.3 |
| 20260510024504 | 53 | 212 | 2.0 | 3.0 | 0.00 | 0.18 | 0.18 | 88 | 1004.1 |
| 20260510024003 | 54 | 208 | 2.0 | 3.0 | 0.00 | 0.18 | 0.18 | 88 | 1003.9 |
| 20260510023503 | 54 | 190 | 2.0 | 3.0 | 0.00 | 0.18 | 0.18 | 88 | 1003.8 |
| 20260510023048 | 53 | 206 | 3.0 | 6.0 | 0.00 | 0.18 | 0.18 | 87 | 1005.2 |
| 20260510023004 | 54 | 182 | 3.0 | 6.0 | 0.00 | 0.18 | 0.18 | 88 | 1003.8 |
| 20260510022503 | 54 | 199 | 2.0 | 3.0 | 0.01 | 0.18 | 0.18 | 88 | 1003.9 |
| 20260510022004 | 54 | 214 | 3.0 | 6.0 | 0.02 | 0.18 | 0.18 | 88 | 1003.9 |
| 20260510021551 | 53 | 178 | 1.0 | 4.0 | 0.02 | 0.18 | 0.18 | 88 | 1005.2 |
| 20260510021504 | 54 | 188 | 1.0 | 3.0 | 0.03 | 0.18 | 0.18 | 89 | 1003.9 |
| 20260510021003 | 54 | 190 | 2.0 | 3.0 | 0.04 | 0.18 | 0.18 | 89 | 1003.8 |
| 20260510020504 | 54 | 202 | 2.0 | 5.0 | 0.07 | 0.18 | 0.18 | 88 | 1003.6 |
| 20260510020050 | 53 | 204 | 3.0 | 7.0 | 0.08 | 0.18 | 0.18 | 88 | 1004.8 |
| 20260510020004 | 54 | 192 | 4.0 | 7.0 | 0.09 | 0.18 | 0.18 | 88 | 1003.7 |
| 20260510015503 | 54 | 191 | 3.0 | 7.0 | 0.12 | 0.18 | 0.18 | 88 | 1003.8 |
| 20260510015004 | 54 | 175 | 5.0 | 9.0 | 0.13 | 0.18 | 0.18 | 88 | 1004.0 |
| 20260510014554 | 53 | 189 | 3.0 | 8.0 | 0.14 | 0.18 | 0.18 | 87 | 1005.2 |
| 20260510014504 | 54 | 198 | 3.0 | 8.0 | 0.14 | 0.18 | 0.18 | 88 | 1004.0 |
| 20260510014004 | 54 | 210 | 4.0 | 8.0 | 0.14 | 0.18 | 0.18 | 87 | 1003.9 |
| 20260510013504 | 54 | 200 | 4.0 | 7.0 | 0.15 | 0.18 | 0.18 | 88 | 1003.7 |
| 20260510013052 | 53 | 210 | 3.0 | 9.0 | 0.15 | 0.18 | 0.18 | 87 | 1004.5 |
| 20260510012503 | 54 | 185 | 5.0 | 9.0 | 0.17 | 0.17 | 0.17 | 88 | 1003.3 |
| 20260510012004 | 54 | 142 | 4.0 | 6.0 | 0.16 | 0.16 | 0.16 | 88 | 1003.5 |
| 20260510011554 | 53 | 204 | 4.0 | 9.0 | 0.16 | 0.16 | 0.16 | 87 | 1004.8 |
| 20260510011504 | 54 | 181 | 6.0 | 9.0 | 0.15 | 0.15 | 0.15 | 88 | 1003.8 |
| 20260510011003 | 54 | 194 | 3.0 | 9.0 | 0.14 | 0.14 | 0.14 | 88 | 1004.2 |
| 20260510010504 | 54 | 215 | 3.0 | 10.0 | 0.11 | 0.11 | 0.11 | 87 | 1004.3 |
| 20260510010046 | 54 | 269 | 3.0 | 10.0 | 0.09 | 0.09 | 0.09 | 86 | 1005.3 |
| 20260510005503 | 55 | 236 | 3.0 | 7.0 | 0.06 | 0.06 | 0.06 | 85 | 1004.3 |
| 20260510004551 | 55 | 0 | 2.0 | 6.0 | 0.04 | 0.04 | 0.04 | 84 | 1005.3 |
| 20260510004504 | 55 | 294 | 3.0 | 6.0 | 0.04 | 0.04 | 0.04 | 84 | 1004.3 |
| 20260510004003 | 56 | 310 | 2.0 | 6.0 | 0.04 | 0.04 | 0.04 | 83 | 1003.9 |
| 20260510003504 | 56 | 287 | 3.0 | 7.0 | 0.03 | 0.03 | 0.03 | 81 | 1003.8 |
| 20260510003108 | 57 | 286 | 3.0 | 12.0 | 0.03 | 0.03 | 0.03 | 78 | 1004.6 |
| 20260510003006 | 58 | 333 | 3.0 | 9.0 | 0.03 | 0.03 | 0.03 | 76 | 1003.4 |
| 20260510002504 | 62 | 281 | 5.0 | 12.0 | 0.00 | 0.00 | 0.00 | 68 | 1003.5 |
| 20260510001549 | 64 | 98 | 1.0 | 3.0 | 0.00 | 0.00 | 0.00 | 58 | 1002.9 |
| 20260510001504 | 65 | 142 | 2.0 | 3.0 | 0.00 | 0.00 | 0.00 | 57 | 1001.9 |
| 20260510001004 | 65 | 191 | 1.0 | 2.0 | 0.00 | 0.00 | 0.00 | 57 | 1001.9 |
| 20260510000503 | 65 | 133 | 1.0 | 3.0 | 0.00 | 0.00 | 0.00 | 55 | 1001.7 |
| 20260510000003 | 65 | 207 | 1.0 | 3.0 | 0.00 | 0.00 | 0.00 | 56 | 1001.8 |
| 20260509235504 | 65 | 219 | 1.0 | 2.0 | 0.00 | 0.00 | 0.00 | 55 | 1001.7 |
| 20260509235003 | 66 | 185 | 1.0 | 2.0 | 0.00 | 0.00 | 0.00 | 54 | 1001.5 |
| 20260509234601 | 65 | 240 | 0.0 | 4.0 | 0.00 | 0.00 | 0.00 | 54 | 1002.4 |
| 20260509234503 | 66 | 227 | 1.0 | 3.0 | 0.00 | 0.00 | 0.00 | 54 | 1001.3 |
| 20260509234004 | 66 | 195 | 1.0 | 3.0 | 0.00 | 0.00 | 0.00 | 54 | 1001.3 |
| 20260509233504 | 66 | 124 | 1.0 | 3.0 | 0.00 | 0.00 | 0.00 | 53 | 1001.4 |
| 20260509233051 | 66 | 197 | 1.0 | 6.0 | 0.00 | 0.00 | 0.00 | 52 | 1002.5 |
| 20260509233004 | 66 | 175 | 1.0 | 6.0 | 0.00 | 0.00 | 0.00 | 53 | 1001.4 |
| 20260509232003 | 67 | 190 | 3.0 | 3.0 | 0.00 | 0.00 | 0.00 | 52 | 1001.4 |
| 20260509231555 | 66 | 227 | 2.0 | 7.0 | 0.00 | 0.00 | 0.00 | 52 | 1002.4 |
| 20260509231504 | 67 | 138 | 3.0 | 6.0 | 0.00 | 0.00 | 0.00 | 51 | 1001.4 |
| 20260509231003 | 67 | 219 | 4.0 | 7.0 | 0.00 | 0.00 | 0.00 | 51 | 1001.2 |
| 20260509230504 | 67 | 156 | 2.0 | 5.0 | 0.00 | 0.00 | 0.00 | 52 | 1001.2 |
| 20260509230057 | 66 | 209 | 3.0 | 7.0 | 0.00 | 0.00 | 0.00 | 50 | 1002.4 |
| 20260509225503 | 67 | 190 | 3.0 | 7.0 | 0.00 | 0.00 | 0.00 | 52 | 1001.3 |
| 20260509225004 | 67 | 214 | 2.0 | 7.0 | 0.00 | 0.00 | 0.00 | 52 | 1001.5 |
| 20260509224548 | 66 | 188 | 3.0 | 8.0 | 0.00 | 0.00 | 0.00 | 51 | 1002.8 |
| 20260509224504 | 67 | 208 | 4.0 | 7.0 | 0.00 | 0.00 | 0.00 | 51 | 1001.6 |
| 20260509224004 | 67 | 221 | 2.0 | 8.0 | 0.00 | 0.00 | 0.00 | 52 | 1001.8 |
| 20260509223054 | 67 | 226 | 5.0 | 10.0 | 0.00 | 0.00 | 0.00 | 50 | 1002.9 |
| 20260509223003 | 67 | 219 | 5.0 | 10.0 | 0.00 | 0.00 | 0.00 | 50 | 1001.7 |
| 20260509222503 | 68 | 236 | 4.0 | 7.0 | 0.00 | 0.00 | 0.00 | 50 | 1001.7 |
| 20260509222004 | 68 | 219 | 6.0 | 12.0 | 0.00 | 0.00 | 0.00 | 50 | 1001.7 |
| 20260509221550 | 67 | 189 | 2.0 | 9.0 | 0.00 | 0.00 | 0.00 | 53 | 1002.7 |
| 20260509221503 | 67 | 213 | 3.0 | 7.0 | 0.00 | 0.00 | 0.00 | 53 | 1001.7 |
| 20260509221003 | 68 | 205 | 6.0 | 9.0 | 0.00 | 0.00 | 0.00 | 51 | 1001.6 |
| 20260509220049 | 69 | 257 | 2.0 | 10.0 | 0.00 | 0.00 | 0.00 | 50 | 1002.7 |
| 20260509220004 | 69 | 190 | 2.0 | 8.0 | 0.00 | 0.00 | 0.00 | 51 | 1001.7 |
| 20260509215504 | 69 | 193 | 3.0 | 10.0 | 0.00 | 0.00 | 0.00 | 50 | 1001.6 |
| 20260509214553 | 67 | 174 | 5.0 | 12.0 | 0.00 | 0.00 | 0.00 | 50 | 1002.9 |
| 20260509214003 | 68 | 222 | 6.0 | 12.0 | 0.00 | 0.00 | 0.00 | 49 | 1001.7 |
| 20260509213503 | 69 | 192 | 5.0 | 12.0 | 0.00 | 0.00 | 0.00 | 48 | 1001.6 |
| 20260509213055 | 68 | 250 | 7.0 | 18.0 | 0.00 | 0.00 | 0.00 | 49 | 1002.7 |
| 20260509213004 | 69 | 224 | 8.0 | 18.0 | 0.00 | 0.00 | 0.00 | 48 | 1001.6 |
| 20260509212503 | 68 | 242 | 6.0 | 12.0 | 0.00 | 0.00 | 0.00 | 49 | 1001.6 |
| 20260509212004 | 69 | 220 | 6.0 | 15.0 | 0.00 | 0.00 | 0.00 | 49 | 1001.7 |
| 20260509211556 | 69 | 175 | 4.0 | 14.0 | 0.00 | 0.00 | 0.00 | 50 | 1002.6 |
| 20260509211504 | 69 | 203 | 5.0 | 14.0 | 0.00 | 0.00 | 0.00 | 51 | 1001.5 |
| 20260509211004 | 69 | 205 | 8.0 | 13.0 | 0.00 | 0.00 | 0.00 | 50 | 1001.4 |
| 20260509210051 | 69 | 206 | 6.0 | 13.0 | 0.00 | 0.00 | 0.00 | 47 | 1002.5 |
| 20260509210003 | 69 | 165 | 7.0 | 13.0 | 0.00 | 0.00 | 0.00 | 47 | 1001.4 |
| 20260509205504 | 69 | 215 | 3.0 | 9.0 | 0.00 | 0.00 | 0.00 | 49 | 1001.5 |
| 20260509205004 | 68 | 219 | 6.0 | 12.0 | 0.00 | 0.00 | 0.00 | 48 | 1001.5 |
| 20260509204550 | 68 | 246 | 3.0 | 16.0 | 0.00 | 0.00 | 0.00 | 49 | 1002.7 |
| 20260509204004 | 69 | 223 | 7.0 | 16.0 | 0.00 | 0.00 | 0.00 | 49 | 1001.5 |
| 20260509203504 | 70 | 202 | 4.0 | 9.0 | 0.00 | 0.00 | 0.00 | 49 | 1001.6 |
| 20260509203052 | 68 | 248 | 5.0 | 12.0 | 0.00 | 0.00 | 0.00 | 48 | 1002.7 |
| 20260509203003 | 69 | 201 | 5.0 | 10.0 | 0.00 | 0.00 | 0.00 | 49 | 1001.7 |
| 20260509202503 | 69 | 204 | 6.0 | 10.0 | 0.00 | 0.00 | 0.00 | 49 | 1001.8 |
| 20260509202004 | 69 | 197 | 5.0 | 12.0 | 0.00 | 0.00 | 0.00 | 47 | 1001.8 |
| 20260509201550 | 69 | 269 | 5.0 | 12.0 | 0.00 | 0.00 | 0.00 | 45 | 1002.9 |
| 20260509201503 | 70 | 213 | 5.0 | 12.0 | 0.00 | 0.00 | 0.00 | 46 | 1002.0 |
| 20260509201003 | 70 | 199 | 5.0 | 12.0 | 0.00 | 0.00 | 0.00 | 47 | 1002.1 |
| 20260509200503 | 71 | 181 | 5.0 | 8.0 | 0.00 | 0.00 | 0.00 | 45 | 1002.1 |
| 20260509200055 | 69 | 206 | 4.0 | 11.0 | 0.00 | 0.00 | 0.00 | 45 | 1003.0 |
| 20260509200004 | 69 | 170 | 5.0 | 12.0 | 0.00 | 0.00 | 0.00 | 46 | 1002.2 |
| 20260509195504 | 69 | 212 | 6.0 | 12.0 | 0.00 | 0.00 | 0.00 | 44 | 1002.3 |
| 20260509195003 | 70 | 199 | 5.0 | 12.0 | 0.00 | 0.00 | 0.00 | 47 | 1002.3 |
| 20260509194547 | 69 | 223 | 5.0 | 10.0 | 0.00 | 0.00 | 0.00 | 46 | 1003.1 |
| 20260509194504 | 70 | 184 | 5.0 | 10.0 | 0.00 | 0.00 | 0.00 | 45 | 1002.3 |
| 20260509194003 | 73 | 243 | 3.0 | 7.0 | 0.00 | 0.00 | 0.00 | 45 | 1002.1 |
| 20260509193504 | 70 | 202 | 6.0 | 15.0 | 0.00 | 0.00 | 0.00 | 48 | 1002.0 |
| 20260509193049 | 71 | 135 | 3.0 | 16.0 | 0.00 | 0.00 | 0.00 | 44 | 1003.0 |
| 20260509193004 | 72 | 170 | 3.0 | 8.0 | 0.00 | 0.00 | 0.00 | 43 | 1002.2 |
| 20260509192004 | 70 | 129 | 5.0 | 12.0 | 0.00 | 0.00 | 0.00 | 46 | 1002.4 |
| 20260509191546 | 69 | 175 | 4.0 | 10.0 | 0.00 | 0.00 | 0.00 | 47 | 1003.3 |
| 20260509191504 | 70 | 219 | 4.0 | 10.0 | 0.00 | 0.00 | 0.00 | 46 | 1002.4 |
| 20260509191003 | 70 | 204 | 4.0 | 10.0 | 0.00 | 0.00 | 0.00 | 48 | 1002.4 |
| 20260509190504 | 69 | 182 | 5.0 | 8.0 | 0.00 | 0.00 | 0.00 | 49 | 1002.5 |
| 20260509190050 | 70 | 203 | 4.0 | 11.0 | 0.00 | 0.00 | 0.00 | 50 | 1003.5 |
| 20260509190004 | 69 | 191 | 4.0 | 8.0 | 0.00 | 0.00 | 0.00 | 48 | 1002.7 |
| 20260509185003 | 68 | 193 | 5.0 | 12.0 | 0.00 | 0.00 | 0.00 | 52 | 1002.8 |
| 20260509184547 | 67 | 184 | 5.0 | 11.0 | 0.00 | 0.00 | 0.00 | 53 | 1003.8 |
| 20260509184504 | 67 | 215 | 5.0 | 12.0 | 0.00 | 0.00 | 0.00 | 53 | 1002.9 |
| 20260509184004 | 66 | 221 | 5.0 | 9.0 | 0.00 | 0.00 | 0.00 | 53 | 1003.0 |
| 20260509183504 | 67 | 208 | 5.0 | 10.0 | 0.00 | 0.00 | 0.00 | 54 | 1003.1 |
| 20260509183121 | 67 | 178 | 5.0 | 12.0 | 0.00 | 0.00 | 0.00 | 53 | 1004.0 |
| 20260509183004 | 67 | 114 | 5.0 | 12.0 | 0.00 | 0.00 | 0.00 | 54 | 1003.2 |
| 20260509182504 | 67 | 183 | 2.0 | 6.0 | 0.00 | 0.00 | 0.00 | 55 | 1003.3 |
| 20260509182004 | 67 | 219 | 5.0 | 12.0 | 0.00 | 0.00 | 0.00 | 54 | 1003.3 |
| 20260509181601 | 67 | 183 | 5.0 | 13.0 | 0.00 | 0.00 | 0.00 | 53 | 1004.2 |
| 20260509181504 | 67 | 220 | 6.0 | 9.0 | 0.00 | 0.00 | 0.00 | 54 | 1003.3 |
| 20260509181004 | 66 | 207 | 5.0 | 13.0 | 0.00 | 0.00 | 0.00 | 56 | 1003.4 |
| 20260509180503 | 66 | 187 | 6.0 | 12.0 | 0.00 | 0.00 | 0.00 | 54 | 1003.5 |
| 20260509180044 | 65 | 240 | 5.0 | 10.0 | 0.00 | 0.00 | 0.00 | 55 | 1004.4 |
| 20260509180003 | 66 | 187 | 5.0 | 10.0 | 0.00 | 0.00 | 0.00 | 56 | 1003.5 |
| 20260509175503 | 66 | 216 | 5.0 | 8.0 | 0.00 | 0.00 | 0.00 | 56 | 1003.5 |
| 20260509175003 | 65 | 215 | 4.0 | 16.0 | 0.00 | 0.00 | 0.00 | 56 | 1003.5 |
| 20260509174550 | 68 | 221 | 3.0 | 13.0 | 0.00 | 0.00 | 0.00 | 52 | 1004.4 |
| 20260509174503 | 69 | 220 | 2.0 | 13.0 | 0.00 | 0.00 | 0.00 | 52 | 1003.4 |
| 20260509173504 | 65 | 214 | 6.0 | 10.0 | 0.00 | 0.00 | 0.00 | 56 | 1003.6 |
| 20260509173047 | 65 | 204 | 4.0 | 10.0 | 0.00 | 0.00 | 0.00 | 56 | 1004.6 |
| 20260509173004 | 65 | 178 | 4.0 | 10.0 | 0.00 | 0.00 | 0.00 | 57 | 1003.7 |
| 20260509172503 | 64 | 191 | 4.0 | 10.0 | 0.00 | 0.00 | 0.00 | 56 | 1003.7 |
| 20260509172003 | 65 | 229 | 5.0 | 8.0 | 0.00 | 0.00 | 0.00 | 56 | 1003.7 |
| 20260509171547 | 65 | 245 | 4.0 | 12.0 | 0.00 | 0.00 | 0.00 | 58 | 1004.6 |
| 20260509171504 | 65 | 198 | 5.0 | 10.0 | 0.00 | 0.00 | 0.00 | 56 | 1003.6 |
| 20260509171003 | 66 | 191 | 5.0 | 12.0 | 0.00 | 0.00 | 0.00 | 58 | 1003.7 |
| 20260509170503 | 67 | 201 | 4.0 | 10.0 | 0.00 | 0.00 | 0.00 | 54 | 1003.7 |
| 20260509170045 | 66 | 139 | 3.0 | 12.0 | 0.00 | 0.00 | 0.00 | 56 | 1004.7 |
| 20260509170004 | 66 | 111 | 4.0 | 12.0 | 0.00 | 0.00 | 0.00 | 57 | 1003.9 |
| 20260509165503 | 64 | 221 | 4.0 | 8.0 | 0.00 | 0.00 | 0.00 | 62 | 1004.0 |
| 20260509165003 | 65 | 205 | 5.0 | 12.0 | 0.00 | 0.00 | 0.00 | 58 | 1004.1 |
| 20260509164546 | 65 | 117 | 4.0 | 11.0 | 0.00 | 0.00 | 0.00 | 55 | 1004.9 |
| 20260509164003 | 65 | 199 | 1.0 | 3.0 | 0.00 | 0.00 | 0.00 | 63 | 1004.1 |
| 20260509163503 | 64 | 213 | 3.0 | 8.0 | 0.00 | 0.00 | 0.00 | 60 | 1004.2 |
| 20260509163056 | 64 | 207 | 2.0 | 7.0 | 0.00 | 0.00 | 0.00 | 60 | 1005.2 |
| 20260509163004 | 64 | 117 | 2.0 | 5.0 | 0.00 | 0.00 | 0.00 | 60 | 1004.3 |
| 20260509162504 | 63 | 164 | 1.0 | 3.0 | 0.00 | 0.00 | 0.00 | 63 | 1004.4 |
| 20260509162003 | 62 | 207 | 3.0 | 7.0 | 0.00 | 0.00 | 0.00 | 63 | 1004.5 |
| 20260509161554 | 62 | 245 | 4.0 | 10.0 | 0.00 | 0.00 | 0.00 | 62 | 1005.5 |
| 20260509161503 | 63 | 230 | 5.0 | 10.0 | 0.00 | 0.00 | 0.00 | 62 | 1004.6 |
| 20260509160504 | 63 | 174 | 2.0 | 8.0 | 0.00 | 0.00 | 0.00 | 63 | 1004.6 |
| 20260509160051 | 63 | 211 | 3.0 | 9.0 | 0.00 | 0.00 | 0.00 | 60 | 1005.4 |
| 20260509160003 | 64 | 212 | 4.0 | 7.0 | 0.00 | 0.00 | 0.00 | 61 | 1004.8 |
| 20260509155504 | 63 | 248 | 3.0 | 6.0 | 0.00 | 0.00 | 0.00 | 63 | 1004.7 |
| 20260509155004 | 63 | 239 | 5.0 | 9.0 | 0.00 | 0.00 | 0.00 | 63 | 1004.7 |
| 20260509154558 | 63 | 252 | 3.0 | 7.0 | 0.00 | 0.00 | 0.00 | 63 | 1005.5 |
| 20260509154004 | 62 | 207 | 3.0 | 5.0 | 0.00 | 0.00 | 0.00 | 65 | 1004.8 |
| 20260509153503 | 61 | 118 | 2.0 | 6.0 | 0.00 | 0.00 | 0.00 | 65 | 1004.8 |
| 20260509153055 | 61 | 212 | 2.0 | 9.0 | 0.00 | 0.00 | 0.00 | 64 | 1005.6 |
| 20260509152504 | 61 | 226 | 5.0 | 9.0 | 0.00 | 0.00 | 0.00 | 65 | 1004.9 |
| 20260509151552 | 61 | 236 | 3.0 | 7.0 | 0.00 | 0.00 | 0.00 | 66 | 1005.8 |
| 20260509150504 | 61 | 164 | 3.0 | 6.0 | 0.00 | 0.00 | 0.00 | 66 | 1005.1 |
| 20260509150050 | 60 | 178 | 2.0 | 8.0 | 0.00 | 0.00 | 0.00 | 67 | 1005.9 |
| 20260509150003 | 60 | 225 | 2.0 | 5.0 | 0.00 | 0.00 | 0.00 | 68 | 1005.0 |
| 20260509145504 | 60 | 254 | 3.0 | 8.0 | 0.00 | 0.00 | 0.00 | 67 | 1005.0 |
| 20260509145004 | 61 | 208 | 5.0 | 8.0 | 0.00 | 0.00 | 0.00 | 66 | 1005.1 |
| 20260509144552 | 60 | 0 | 3.0 | 7.0 | 0.00 | 0.00 | 0.00 | 66 | 1006.0 |
| 20260509144503 | 61 | 218 | 4.0 | 6.0 | 0.00 | 0.00 | 0.00 | 68 | 1005.2 |
| 20260509144003 | 60 | 198 | 2.0 | 5.0 | 0.00 | 0.00 | 0.00 | 68 | 1005.3 |
| 20260509143504 | 60 | 245 | 4.0 | 7.0 | 0.00 | 0.00 | 0.00 | 68 | 1005.2 |
| 20260509143052 | 60 | 234 | 3.0 | 8.0 | 0.00 | 0.00 | 0.00 | 68 | 1006.1 |
| 20260509143004 | 60 | 215 | 3.0 | 8.0 | 0.00 | 0.00 | 0.00 | 69 | 1005.4 |
| 20260509142503 | 59 | 203 | 1.0 | 6.0 | 0.00 | 0.00 | 0.00 | 70 | 1005.4 |
| 20260509141546 | 58 | 218 | 1.0 | 5.0 | 0.00 | 0.00 | 0.00 | 70 | 1006.1 |
| 20260509141003 | 59 | 234 | 2.0 | 5.0 | 0.00 | 0.00 | 0.00 | 71 | 1005.4 |
| 20260509140057 | 58 | 238 | 1.0 | 4.0 | 0.00 | 0.00 | 0.00 | 69 | 1006.3 |
| 20260509140004 | 59 | 245 | 2.0 | 3.0 | 0.00 | 0.00 | 0.00 | 69 | 1005.5 |
| 20260509135004 | 57 | 80 | 0.0 | 3.0 | 0.00 | 0.00 | 0.00 | 73 | 1005.7 |
| 20260509134558 | 56 | 161 | 1.0 | 3.0 | 0.00 | 0.01 | 0.00 | 72 | 1006.6 |
| 20260509134504 | 56 | 121 | 1.0 | 3.0 | 0.00 | 0.00 | 0.00 | 71 | 1005.9 |
| 20260509134003 | 56 | 173 | 1.0 | 3.0 | 0.00 | 0.00 | 0.00 | 72 | 1006.0 |
| 20260509133504 | 56 | 252 | 2.0 | 3.0 | 0.00 | 0.00 | 0.00 | 71 | 1006.1 |
| 20260509133046 | 55 | 0 | 0.0 | 2.0 | 0.00 | 0.01 | 0.00 | 72 | 1006.9 |
| 20260509132504 | 54 | 249 | 0.0 | 1.0 | 0.00 | 0.00 | 0.00 | 74 | 1006.1 |
| 20260509132004 | 54 | 212 | 1.0 | 1.0 | 0.00 | 0.00 | 0.00 | 73 | 1006.1 |
| 20260509131549 | 53 | 0 | 1.0 | 2.0 | 0.00 | 0.01 | 0.00 | 73 | 1007.0 |
| 20260509131004 | 52 | 26 | 0.0 | 1.0 | 0.00 | 0.00 | 0.00 | 75 | 1006.2 |
| 20260509130504 | 52 | 146 | 1.0 | 2.0 | 0.00 | 0.01 | 0.00 | 76 | 1006.3 |
| 20260509130046 | 51 | 0 | 0.0 | 2.0 | 0.00 | 0.01 | 0.00 | 75 | 1007.2 |
| 20260509130004 | 51 | 333 | 1.0 | 2.0 | 0.00 | 0.01 | 0.00 | 76 | 1006.4 |
| 20260509125503 | 51 | 40 | 0.0 | 1.0 | 0.00 | 0.01 | 0.00 | 78 | 1006.4 |
| 20260509124544 | 49 | 0 | 0.0 | 1.0 | 0.00 | 0.04 | 0.00 | 81 | 1007.3 |
| 20260509124504 | 50 | 29 | 0.0 | 1.0 | 0.00 | 0.01 | 0.00 | 82 | 1006.4 |
| 20260509124004 | 49 | 36 | 0.0 | 1.0 | 0.00 | 0.01 | 0.00 | 81 | 1006.4 |
| 20260509123503 | 48 | 168 | 1.0 | 1.0 | 0.00 | 0.02 | 0.00 | 83 | 1006.4 |
| 20260509123052 | 47 | 0 | 0.0 | 2.0 | 0.00 | 0.04 | 0.00 | 84 | 1007.3 |
| 20260509123004 | 48 | 71 | 0.0 | 2.0 | 0.00 | 0.02 | 0.00 | 85 | 1006.4 |
| 20260509122004 | 46 | 326 | 0.0 | 1.0 | 0.00 | 0.03 | 0.00 | 88 | 1006.5 |
| 20260509121547 | 45 | 0 | 0.0 | 2.0 | 0.00 | 0.04 | 0.00 | 88 | 1007.3 |
| 20260509121504 | 45 | 295 | 1.0 | 2.0 | 0.00 | 0.03 | 0.00 | 89 | 1006.5 |
| 20260509121004 | 45 | 26 | 1.0 | 2.0 | 0.00 | 0.03 | 0.00 | 90 | 1006.6 |
| 20260509120503 | 44 | 333 | 1.0 | 2.0 | 0.00 | 0.04 | 0.00 | 90 | 1006.6 |
| 20260509120054 | 43 | 135 | 0.0 | 2.0 | 0.00 | 0.04 | 0.00 | 90 | 1007.4 |
| 20260509120003 | 43 | 261 | 0.0 | 1.0 | 0.00 | 0.04 | 0.00 | 91 | 1006.6 |
| 20260509114548 | 42 | 0 | 0.0 | 2.0 | 0.00 | 0.04 | 0.00 | 91 | 1007.4 |
| 20260509114503 | 42 | 339 | 0.0 | 2.0 | 0.00 | 0.04 | 0.00 | 91 | 1006.7 |
| 20260509114003 | 42 | 359 | 0.0 | 1.0 | 0.00 | 0.04 | 0.00 | 92 | 1006.7 |
| 20260509113503 | 42 | 7 | 0.0 | 1.0 | 0.00 | 0.04 | 0.00 | 92 | 1006.6 |
| 20260509113049 | 41 | 0 | 0.0 | 2.0 | 0.00 | 0.04 | 0.00 | 91 | 1007.4 |
| 20260509113004 | 41 | 35 | 0.0 | 1.0 | 0.00 | 0.04 | 0.00 | 92 | 1006.7 |
| 20260509112504 | 41 | 316 | 0.0 | 1.0 | 0.00 | 0.04 | 0.00 | 92 | 1006.6 |
| 20260509112003 | 41 | 66 | 0.0 | 1.0 | 0.00 | 0.04 | 0.00 | 92 | 1006.6 |
| 20260509111551 | 40 | 0 | 0.0 | 2.0 | 0.00 | 0.04 | 0.00 | 91 | 1007.4 |
| 20260509111004 | 40 | 188 | 0.0 | 1.0 | 0.00 | 0.04 | 0.00 | 92 | 1006.6 |
| 20260509110504 | 40 | 30 | 0.0 | 1.0 | 0.00 | 0.04 | 0.00 | 92 | 1006.7 |
| 20260509110049 | 39 | 0 | 0.0 | 1.0 | 0.00 | 0.04 | 0.00 | 91 | 1007.5 |
| 20260509110004 | 40 | 233 | 0.0 | 1.0 | 0.00 | 0.04 | 0.00 | 92 | 1006.6 |
| 20260509105003 | 39 | 351 | 0.0 | 1.0 | 0.00 | 0.04 | 0.00 | 92 | 1006.5 |
| 20260509104548 | 39 | 0 | 0.0 | 1.0 | 0.00 | 0.04 | 0.00 | 91 | 1007.3 |
| 20260509104503 | 39 | 227 | 0.0 | 1.0 | 0.00 | 0.04 | 0.00 | 92 | 1006.5 |
| 20260509104004 | 39 | 187 | 0.0 | 1.0 | 0.00 | 0.04 | 0.00 | 91 | 1006.5 |
| 20260509103504 | 39 | 57 | 0.0 | 1.0 | 0.00 | 0.04 | 0.00 | 91 | 1006.6 |
| 20260509103051 | 38 | 152 | 0.0 | 1.0 | 0.00 | 0.04 | 0.00 | 91 | 1007.3 |
| 20260509103003 | 39 | 167 | 0.0 | 1.0 | 0.00 | 0.04 | 0.00 | 91 | 1006.5 |
| 20260509102503 | 39 | 141 | 0.0 | 1.0 | 0.00 | 0.04 | 0.00 | 91 | 1006.6 |
| 20260509101555 | 38 | 0 | 0.0 | 1.0 | 0.00 | 0.04 | 0.00 | 91 | 1007.3 |
| 20260509101504 | 39 | 112 | 0.0 | 1.0 | 0.00 | 0.04 | 0.00 | 91 | 1006.5 |
| 20260509101003 | 39 | 184 | 0.0 | 1.0 | 0.00 | 0.04 | 0.00 | 91 | 1006.5 |
| 20260509100503 | 39 | 296 | 0.0 | 1.0 | 0.00 | 0.04 | 0.00 | 91 | 1006.5 |
| 20260509100049 | 38 | 0 | 0.0 | 1.0 | 0.00 | 0.04 | 0.00 | 91 | 1007.3 |
| 20260509095504 | 38 | 194 | 0.0 | 1.0 | 0.00 | 0.04 | 0.00 | 91 | 1006.5 |
| 20260509095003 | 38 | 96 | 0.0 | 1.0 | 0.00 | 0.04 | 0.00 | 91 | 1006.5 |
| 20260509094545 | 38 | 0 | 0.0 | 1.0 | 0.00 | 0.04 | 0.00 | 90 | 1007.4 |
| 20260509094504 | 38 | 106 | 0.0 | 1.0 | 0.00 | 0.04 | 0.00 | 91 | 1006.6 |
| 20260509093503 | 38 | 46 | 0.0 | 1.0 | 0.00 | 0.04 | 0.00 | 90 | 1006.6 |
| 20260509093056 | 37 | 0 | 0.0 | 1.0 | 0.00 | 0.04 | 0.00 | 90 | 1007.4 |
| 20260509093004 | 38 | 31 | 0.0 | 1.0 | 0.00 | 0.04 | 0.00 | 90 | 1006.6 |
| 20260509092504 | 38 | 28 | 0.0 | 1.0 | 0.00 | 0.04 | 0.00 | 90 | 1006.6 |
| 20260509091548 | 37 | 0 | 0.0 | 2.0 | 0.00 | 0.04 | 0.00 | 90 | 1007.4 |
| 20260509091503 | 38 | 53 | 0.0 | 2.0 | 0.00 | 0.04 | 0.00 | 90 | 1006.6 |
| 20260509091003 | 38 | 215 | 1.0 | 1.0 | 0.00 | 0.04 | 0.00 | 90 | 1006.6 |
| 20260509090503 | 38 | 76 | 0.0 | 1.0 | 0.00 | 0.04 | 0.00 | 91 | 1006.6 |
| 20260509090051 | 38 | 197 | 0.0 | 2.0 | 0.00 | 0.04 | 0.00 | 90 | 1007.5 |
| 20260509085003 | 38 | 214 | 0.0 | 1.0 | 0.00 | 0.04 | 0.00 | 91 | 1006.7 |
| 20260509084554 | 38 | 0 | 0.0 | 1.0 | 0.00 | 0.04 | 0.00 | 90 | 1007.5 |
| 20260509084504 | 38 | 313 | 1.0 | 1.0 | 0.00 | 0.04 | 0.00 | 91 | 1006.7 |
| 20260509084004 | 38 | 228 | 1.0 | 1.0 | 0.00 | 0.04 | 0.00 | 91 | 1006.7 |
| 20260509083504 | 38 | 3 | 0.0 | 1.0 | 0.00 | 0.04 | 0.00 | 91 | 1006.7 |
| 20260509083051 | 38 | 0 | 0.0 | 2.0 | 0.00 | 0.04 | 0.00 | 90 | 1007.6 |
| 20260509083004 | 38 | 118 | 0.0 | 1.0 | 0.00 | 0.04 | 0.00 | 90 | 1006.9 |
| 20260509082504 | 38 | 81 | 0.0 | 2.0 | 0.00 | 0.04 | 0.00 | 91 | 1007.0 |
| 20260509082003 | 38 | 211 | 1.0 | 2.0 | 0.00 | 0.04 | 0.00 | 91 | 1007.1 |
| 20260509081548 | 38 | 0 | 0.0 | 2.0 | 0.00 | 0.04 | 0.00 | 90 | 1007.8 |
| 20260509081504 | 38 | 102 | 0.0 | 1.0 | 0.00 | 0.04 | 0.00 | 91 | 1007.1 |
| 20260509080504 | 38 | 209 | 0.0 | 2.0 | 0.00 | 0.04 | 0.00 | 91 | 1007.2 |
| 20260509080053 | 37 | 0 | 0.0 | 2.0 | 0.00 | 0.04 | 0.00 | 90 | 1008.0 |
| 20260509080004 | 38 | 229 | 0.0 | 2.0 | 0.00 | 0.04 | 0.00 | 90 | 1007.2 |
| 20260509075503 | 38 | 225 | 1.0 | 1.0 | 0.00 | 0.04 | 0.00 | 90 | 1007.1 |
| 20260509075004 | 38 | 185 | 0.0 | 1.0 | 0.00 | 0.04 | 0.00 | 90 | 1007.2 |
| 20260509074544 | 37 | 0 | 0.0 | 1.0 | 0.00 | 0.04 | 0.00 | 89 | 1008.0 |
| 20260509074504 | 38 | 37 | 0.0 | 0.0 | 0.00 | 0.04 | 0.00 | 90 | 1007.2 |
| 20260509074003 | 38 | 64 | 0.0 | 1.0 | 0.00 | 0.04 | 0.00 | 90 | 1007.2 |
| 20260509073504 | 38 | 46 | 0.0 | 0.0 | 0.00 | 0.04 | 0.00 | 89 | 1007.3 |
| 20260509073157 | 37 | 0 | 0.0 | 1.0 | 0.00 | 0.04 | 0.00 | 89 | 1008.1 |
| 20260509073003 | 38 | 322 | 0.0 | 1.0 | 0.00 | 0.04 | 0.00 | 89 | 1007.4 |
| 20260509072503 | 38 | 179 | 0.0 | 1.0 | 0.00 | 0.04 | 0.00 | 89 | 1007.4 |
| 20260509071549 | 37 | 0 | 0.0 | 1.0 | 0.00 | 0.04 | 0.00 | 89 | 1008.3 |
| 20260509071504 | 38 | 33 | 0.0 | 1.0 | 0.00 | 0.04 | 0.00 | 89 | 1007.5 |
| 20260509071004 | 38 | 129 | 0.0 | 0.0 | 0.00 | 0.04 | 0.00 | 89 | 1007.5 |
| 20260509070503 | 38 | 63 | 0.0 | 1.0 | 0.00 | 0.04 | 0.00 | 89 | 1007.5 |
| 20260509070136 | 38 | 0 | 0.0 | 1.0 | 0.00 | 0.04 | 0.00 | 88 | 1008.4 |
| 20260509070004 | 38 | 163 | 1.0 | 1.0 | 0.00 | 0.04 | 0.00 | 89 | 1007.6 |
| 20260509065504 | 38 | 52 | 0.0 | 1.0 | 0.00 | 0.04 | 0.00 | 89 | 1007.7 |
| 20260509064612 | 38 | 0 | 0.0 | 1.0 | 0.00 | 0.04 | 0.00 | 89 | 1008.6 |
| 20260509064504 | 39 | 105 | 1.0 | 1.0 | 0.00 | 0.04 | 0.00 | 89 | 1007.8 |
| 20260509064003 | 39 | 98 | 1.0 | 1.0 | 0.00 | 0.04 | 0.00 | 89 | 1007.8 |
| 20260509063503 | 39 | 108 | 0.0 | 1.0 | 0.00 | 0.04 | 0.00 | 89 | 1007.9 |
| 20260509063058 | 38 | 0 | 0.0 | 2.0 | 0.00 | 0.04 | 0.00 | 88 | 1008.8 |
| 20260509063004 | 39 | 127 | 0.0 | 1.0 | 0.00 | 0.04 | 0.00 | 89 | 1008.0 |